createdAt,value
2024-05-09T00:00:55.485Z,4.50
2024-05-09T00:03:23.763Z,4.50
2024-05-09T00:05:51.827Z,4.10
2024-05-09T00:08:19.943Z,4.70
2024-05-09T00:10:48.313Z,4.72
2024-05-09T00:13:16.412Z,5.18
2024-05-09T00:15:44.495Z,4.90
2024-05-09T00:18:12.829Z,4.28
2024-05-09T00:20:41.498Z,4.85
2024-05-09T00:23:16.656Z,4.32
2024-05-09T00:25:45.941Z,5.35
2024-05-09T00:28:14.567Z,4.90
2024-05-09T00:30:42.884Z,4.88
2024-05-09T00:33:11.882Z,5.10
2024-05-09T00:35:42.011Z,3.72
2024-05-09T00:38:11.350Z,5.00
2024-05-09T00:40:42.591Z,4.67
2024-05-09T00:43:14.476Z,4.50
2024-05-09T00:45:44.381Z,4.35
2024-05-09T00:48:17.190Z,3.15
2024-05-09T00:50:47.950Z,4.72
2024-05-09T00:53:19.426Z,3.80
2024-05-09T00:55:48.243Z,4.47
2024-05-09T00:58:21.400Z,4.28
2024-05-09T01:00:51.276Z,3.92
2024-05-09T01:03:20.355Z,3.67
2024-05-09T01:05:48.640Z,3.58
2024-05-09T01:08:17.074Z,3.75
2024-05-09T01:10:47.919Z,4.28
2024-05-09T01:13:16.564Z,3.55
2024-05-09T01:15:44.814Z,3.58
2024-05-09T01:18:14.072Z,3.53
2024-05-09T01:20:44.747Z,3.77
2024-05-09T01:23:16.071Z,3.50
2024-05-09T01:25:47.032Z,3.80
2024-05-09T01:28:16.705Z,4.07
2024-05-09T01:30:45.314Z,3.65
2024-05-09T01:33:13.607Z,3.78
2024-05-09T01:35:43.000Z,3.70
2024-05-09T01:38:14.048Z,3.28
2024-05-09T01:40:44.836Z,3.80
2024-05-09T01:43:12.900Z,3.55
2024-05-09T01:45:41.670Z,3.30
2024-05-09T01:48:11.082Z,3.75
2024-05-09T01:50:42.349Z,3.28
2024-05-09T01:53:15.503Z,3.53
2024-05-09T01:55:44.379Z,3.92
2024-05-09T01:58:12.765Z,3.47
2024-05-09T02:00:42.780Z,3.50
2024-05-09T02:03:16.079Z,3.63
2024-05-09T02:05:47.786Z,3.78
2024-05-09T02:08:19.704Z,3.83
2024-05-09T02:10:50.206Z,3.47
2024-05-09T02:13:19.420Z,3.70
2024-05-09T02:15:48.036Z,3.50
2024-05-09T02:18:16.278Z,3.20
2024-05-09T02:20:44.538Z,3.50
2024-05-09T02:23:14.138Z,3.78
2024-05-09T02:25:42.971Z,4.00
2024-05-09T02:28:10.981Z,3.40
2024-05-09T02:30:41.598Z,3.95
2024-05-09T02:33:13.389Z,4.85
2024-05-09T02:35:44.283Z,4.40
2024-05-09T02:40:41.624Z,6.18
2024-05-09T02:43:12.993Z,6.10
2024-05-09T02:45:41.840Z,5.68
2024-05-09T02:48:14.039Z,5.53
2024-05-09T02:50:44.722Z,5.40
2024-05-09T02:53:14.201Z,6.05
2024-05-09T02:55:43.354Z,5.47
2024-05-09T02:58:12.524Z,5.55
2024-05-09T03:00:42.589Z,5.50
2024-05-09T03:03:13.906Z,5.60
2024-05-09T03:05:46.806Z,4.18
2024-05-09T03:08:15.439Z,4.72
2024-05-09T03:10:43.545Z,5.78
2024-05-09T03:13:14.650Z,5.03
2024-05-09T03:15:44.943Z,5.20
2024-05-09T03:18:39.561Z,4.95
2024-05-09T03:21:07.943Z,5.70
2024-05-09T03:23:42.317Z,4.88
2024-05-09T03:26:13.896Z,4.72
2024-05-09T03:28:45.877Z,5.93
2024-05-09T03:31:14.640Z,5.55
2024-05-09T03:33:42.968Z,4.85
2024-05-09T03:36:11.482Z,4.70
2024-05-09T03:38:42.764Z,4.20
2024-05-09T03:41:11.316Z,3.95
2024-05-09T03:43:39.254Z,3.88
2024-05-09T03:46:07.362Z,3.80
2024-05-09T03:48:36.379Z,4.25
2024-05-09T03:51:05.023Z,3.60
2024-05-09T03:53:33.041Z,3.92
2024-05-09T03:56:04.072Z,3.97
2024-05-09T03:58:32.281Z,3.47
2024-05-09T04:01:00.360Z,3.13
2024-05-09T04:03:28.788Z,4.03
2024-05-09T04:05:57.484Z,3.35
2024-05-09T04:08:25.392Z,3.63
2024-05-09T04:10:53.177Z,3.38
2024-05-09T04:13:21.110Z,3.83
2024-05-09T04:15:49.323Z,3.70
2024-05-09T04:18:18.807Z,3.60
2024-05-09T04:20:47.142Z,3.67
2024-05-09T04:23:15.310Z,3.95
2024-05-09T04:25:45.936Z,3.90
2024-05-09T04:28:14.725Z,4.15
2024-05-09T04:30:43.840Z,3.97
2024-05-09T04:33:14.014Z,4.20
2024-05-09T04:35:46.238Z,4.07
2024-05-09T04:38:15.213Z,4.13
2024-05-09T04:40:44.625Z,3.83
2024-05-09T04:43:17.633Z,3.20
2024-05-09T04:45:46.601Z,4.10
2024-05-09T04:48:14.745Z,3.47
2024-05-09T04:50:43.136Z,4.05
2024-05-09T04:53:16.624Z,4.10
2024-05-09T04:55:45.156Z,3.90
2024-05-09T04:58:13.593Z,3.70
2024-05-09T05:00:41.988Z,2.90
2024-05-09T05:03:14.995Z,3.85
2024-05-09T05:05:45.962Z,3.42
2024-05-09T05:08:17.167Z,3.00
2024-05-09T05:10:47.446Z,2.90
2024-05-09T05:13:18.368Z,2.92
2024-05-09T05:15:48.425Z,2.55
2024-05-09T05:18:17.123Z,2.40
2024-05-09T05:20:45.476Z,2.20
2024-05-09T05:23:16.285Z,2.50
2024-05-09T05:25:48.412Z,2.40
2024-05-09T05:28:18.115Z,2.50
2024-05-09T05:30:46.787Z,2.22
2024-05-09T05:33:16.346Z,2.90
2024-05-09T05:35:44.984Z,2.88
2024-05-09T05:38:13.527Z,2.95
2024-05-09T05:40:41.808Z,2.60
2024-05-09T05:43:16.545Z,2.85
2024-05-09T05:45:45.683Z,2.40
2024-05-09T05:48:17.176Z,2.17
2024-05-09T05:50:46.348Z,2.25
2024-05-09T05:53:14.776Z,2.38
2024-05-09T05:55:43.374Z,2.22
2024-05-09T05:58:15.509Z,2.50
2024-05-09T06:00:44.715Z,2.60
2024-05-09T06:03:14.469Z,2.03
2024-05-09T06:05:48.839Z,2.65
2024-05-09T06:08:17.189Z,2.40
2024-05-09T06:10:45.475Z,2.05
2024-05-09T06:13:14.591Z,2.70
2024-05-09T06:15:43.898Z,2.60
2024-05-09T06:18:12.971Z,3.08
2024-05-09T06:20:43.940Z,2.77
2024-05-09T06:23:16.233Z,2.30
2024-05-09T06:25:44.501Z,2.00
2024-05-09T06:28:12.618Z,1.30
2024-05-09T06:30:42.382Z,1.60
2024-05-09T06:33:14.712Z,1.70
2024-05-09T06:35:45.026Z,1.50
2024-05-09T06:38:13.773Z,1.55
2024-05-09T06:40:44.129Z,1.40
2024-05-09T06:43:18.126Z,2.22
2024-05-09T06:45:49.368Z,2.10
2024-05-09T06:48:22.069Z,1.60
2024-05-09T06:50:51.161Z,1.35
2024-05-09T06:53:23.688Z,1.55
2024-05-09T06:55:51.870Z,1.98
2024-05-09T06:58:19.791Z,1.60
2024-05-09T07:00:48.070Z,1.50
2024-05-09T07:03:18.254Z,0.82
2024-05-09T07:05:49.373Z,1.40
2024-05-09T07:10:46.453Z,1.15
2024-05-09T07:13:15.663Z,1.40
2024-05-09T07:15:44.391Z,1.10
2024-05-09T07:18:18.434Z,1.20
2024-05-09T07:20:49.393Z,1.27
2024-05-09T07:23:19.021Z,1.30
2024-05-09T07:25:47.559Z,1.30
2024-05-09T07:28:19.905Z,1.48
2024-05-09T07:30:48.430Z,1.30
2024-05-09T07:33:23.076Z,1.58
2024-05-09T07:35:53.380Z,1.50
2024-05-09T07:38:21.918Z,1.95
2024-05-09T07:40:50.602Z,2.00
2024-05-09T07:43:18.800Z,1.92
2024-05-09T07:45:52.689Z,1.98
2024-05-09T07:52:39.304Z,1.60
2024-05-09T07:53:49.160Z,1.30
2024-05-09T07:56:22.808Z,1.38
2024-05-09T07:58:56.464Z,1.45
2024-05-09T08:01:28.218Z,1.25
2024-05-09T08:03:56.944Z,1.70
2024-05-09T08:06:25.892Z,1.50
2024-05-09T08:08:54.455Z,1.58
2024-05-09T08:11:23.550Z,1.20
2024-05-09T08:13:51.470Z,1.65
2024-05-09T08:16:19.921Z,1.30
2024-05-09T08:18:50.118Z,1.83
2024-05-09T08:21:19.552Z,1.40
2024-05-09T08:23:47.556Z,1.38
2024-05-09T08:26:15.633Z,1.30
2024-05-09T08:28:43.450Z,1.27
2024-05-09T08:31:12.026Z,1.80
2024-05-09T08:33:48.350Z,1.08
2024-05-09T08:36:17.061Z,1.40
2024-05-09T08:38:45.297Z,1.40
2024-05-09T08:41:18.225Z,1.10
2024-05-09T08:43:47.696Z,1.40
2024-05-09T08:46:19.241Z,1.48
2024-05-09T08:48:50.305Z,1.50
2024-05-09T08:51:18.606Z,1.35
2024-05-09T08:53:46.783Z,1.60
2024-05-09T08:56:17.195Z,1.40
2024-05-09T08:58:46.510Z,1.33
2024-05-09T09:01:15.692Z,1.38
2024-05-09T09:03:45.902Z,1.30
2024-05-09T09:08:46.854Z,1.60
2024-05-09T09:11:15.503Z,1.48
2024-05-09T09:13:43.460Z,1.75
2024-05-09T09:16:11.629Z,1.58
2024-05-09T09:18:39.698Z,1.40
2024-05-09T09:21:11.530Z,1.83
2024-05-09T09:23:42.959Z,1.60
2024-05-09T09:26:16.778Z,1.60
2024-05-09T09:28:47.960Z,2.10
2024-05-09T09:31:20.560Z,1.70
2024-05-09T09:33:49.286Z,1.38
2024-05-09T09:36:18.716Z,1.58
2024-05-09T09:38:48.781Z,1.27
2024-05-09T09:41:20.327Z,1.30
2024-05-09T09:43:49.393Z,1.30
2024-05-09T09:46:18.714Z,1.40
2024-05-09T09:48:47.991Z,1.48
2024-05-09T09:51:16.478Z,1.60
2024-05-09T09:53:45.405Z,1.77
2024-05-09T09:56:18.250Z,2.97
2024-05-09T09:58:47.521Z,1.60
2024-05-09T10:01:15.579Z,1.52
2024-05-09T10:03:46.094Z,2.10
2024-05-09T10:06:15.219Z,1.98
2024-05-09T10:08:43.972Z,1.85
2024-05-09T10:11:12.370Z,2.00
2024-05-09T10:13:42.994Z,2.10
2024-05-09T10:16:12.305Z,1.90
2024-05-09T10:18:41.879Z,1.50
2024-05-09T10:21:17.921Z,2.42
2024-05-09T10:24:09.785Z,1.80
2024-05-09T10:26:39.260Z,1.70
2024-05-09T10:29:18.465Z,1.73
2024-05-09T10:31:48.062Z,2.25
2024-05-09T10:34:23.495Z,2.20
2024-05-09T10:36:55.375Z,2.30
2024-05-09T10:39:26.257Z,1.90
2024-05-09T10:44:22.548Z,1.90
2024-05-09T10:46:50.931Z,2.00
2024-05-09T10:49:19.159Z,2.17
2024-05-09T10:51:48.610Z,1.90
2024-05-09T10:54:17.361Z,1.67
2024-05-09T10:56:45.374Z,1.80
2024-05-09T10:59:13.600Z,2.20
2024-05-09T11:01:41.802Z,2.17
2024-05-09T11:04:10.468Z,2.00
2024-05-09T11:06:39.680Z,1.83
2024-05-09T11:09:08.145Z,1.80
2024-05-09T11:11:36.311Z,2.00
2024-05-09T11:14:13.343Z,1.95
2024-05-09T11:16:41.561Z,2.00
2024-05-09T11:19:14.315Z,2.03
2024-05-09T11:21:42.873Z,2.08
2024-05-09T11:24:11.512Z,2.40
2024-05-09T11:26:40.218Z,2.63
2024-05-09T11:29:08.169Z,2.63
2024-05-09T11:31:48.892Z,2.28
2024-05-09T11:34:16.984Z,2.45
2024-05-09T11:36:45.417Z,2.60
2024-05-09T11:39:14.947Z,2.30
2024-05-09T11:41:43.203Z,2.10
2024-05-09T11:44:11.198Z,2.20
2024-05-09T11:46:39.072Z,2.35
2024-05-09T11:49:07.721Z,2.53
2024-05-09T11:51:36.164Z,2.80
2024-05-09T11:54:04.146Z,2.28
2024-05-09T11:56:32.386Z,2.20
2024-05-09T11:59:00.598Z,2.88
2024-05-09T12:01:28.749Z,2.65
2024-05-09T12:03:56.932Z,2.35
2024-05-09T12:06:25.312Z,2.25
2024-05-09T12:08:53.263Z,2.28
2024-05-09T12:11:21.366Z,2.55
2024-05-09T12:13:49.357Z,3.05
2024-05-09T12:16:17.270Z,2.47
2024-05-09T12:18:45.484Z,2.50
2024-05-09T12:21:17.270Z,3.60
2024-05-09T12:23:45.657Z,2.30
2024-05-09T12:26:15.989Z,2.47
2024-05-09T12:28:44.806Z,2.88
2024-05-09T12:31:12.784Z,2.80
2024-05-09T12:33:40.887Z,2.88
2024-05-09T12:36:09.129Z,2.50
2024-05-09T12:38:37.644Z,2.70
2024-05-09T12:41:05.934Z,2.40
2024-05-09T12:43:33.963Z,2.45
2024-05-09T12:46:03.647Z,2.63
2024-05-09T12:48:31.955Z,2.40
2024-05-09T12:51:00.306Z,2.42
2024-05-09T12:53:28.493Z,2.20
2024-05-09T12:56:00.200Z,3.40
2024-05-09T12:58:30.321Z,2.53
2024-05-09T13:00:58.431Z,2.60
2024-05-09T13:03:26.882Z,3.03
2024-05-09T13:05:55.364Z,2.45
2024-05-09T13:08:23.504Z,3.10
2024-05-09T13:10:51.968Z,2.60
2024-05-09T13:13:20.016Z,2.78
2024-05-09T13:15:48.556Z,3.05
2024-05-09T13:18:16.692Z,2.67
2024-05-09T13:20:45.102Z,2.40
2024-05-09T13:23:13.017Z,3.10
2024-05-09T13:25:41.545Z,2.13
2024-05-09T13:28:09.654Z,2.33
2024-05-09T13:30:40.826Z,2.65
2024-05-09T13:33:12.877Z,2.40
2024-05-09T13:35:47.198Z,2.70
2024-05-09T13:38:20.865Z,2.53
2024-05-09T13:43:18.630Z,2.38
2024-05-09T13:45:47.759Z,2.80
2024-05-09T13:48:15.985Z,2.70
2024-05-09T13:50:44.047Z,2.90
2024-05-09T13:53:12.079Z,2.55
2024-05-09T13:55:40.576Z,2.58
2024-05-09T13:58:09.748Z,2.97
2024-05-09T14:00:46.319Z,2.47
2024-05-09T14:03:19.476Z,2.60
2024-05-09T14:05:51.156Z,2.55
2024-05-09T14:08:22.578Z,2.63
2024-05-09T14:10:52.638Z,2.78
2024-05-09T14:13:20.905Z,2.78
2024-05-09T14:15:49.609Z,2.63
2024-05-09T14:18:18.067Z,2.65
2024-05-09T14:20:46.225Z,2.05
2024-05-09T14:23:15.704Z,2.70
2024-05-09T14:25:45.469Z,2.63
2024-05-09T14:28:14.511Z,3.05
2024-05-09T14:30:43.154Z,2.90
2024-05-09T14:33:12.088Z,2.50
2024-05-09T14:35:40.314Z,2.70
2024-05-09T14:38:10.144Z,3.05
2024-05-09T14:40:42.500Z,2.47
2024-05-09T14:43:14.795Z,2.75
2024-05-09T14:45:44.122Z,3.00
2024-05-09T14:48:15.237Z,3.13
2024-05-09T14:50:44.105Z,3.10
2024-05-09T14:53:14.104Z,3.05
2024-05-09T14:55:43.698Z,2.58
2024-05-09T14:58:13.100Z,2.40
2024-05-09T15:00:46.813Z,2.20
2024-05-09T15:03:22.585Z,2.75
2024-05-09T15:05:51.602Z,3.05
2024-05-09T15:08:20.915Z,2.55
2024-05-09T15:10:50.446Z,3.15
2024-05-09T15:13:20.215Z,2.45
2024-05-09T15:15:48.850Z,2.78
2024-05-09T15:18:17.427Z,2.88
2024-05-09T15:20:45.812Z,3.33
2024-05-09T15:23:14.029Z,3.65
2024-05-09T15:25:44.398Z,2.78
2024-05-09T15:28:12.556Z,3.83
2024-05-09T15:30:42.794Z,3.00
2024-05-09T15:33:14.076Z,2.90
2024-05-09T15:35:42.216Z,2.88
2024-05-09T15:38:10.862Z,2.72
2024-05-09T15:40:40.719Z,3.45
2024-05-09T15:45:41.601Z,4.68
2024-05-09T15:48:10.968Z,2.90
2024-05-09T15:50:41.913Z,3.15
2024-05-09T15:53:13.662Z,3.15
2024-05-09T15:55:43.350Z,3.00
2024-05-09T15:58:12.395Z,2.97
2024-05-09T16:00:44.063Z,2.53
2024-05-09T16:03:15.260Z,2.80
2024-05-09T16:05:46.657Z,3.20
2024-05-09T16:08:15.882Z,3.00
2024-05-09T16:10:46.316Z,3.03
2024-05-09T16:13:16.166Z,2.97
2024-05-09T16:15:44.900Z,2.50
2024-05-09T16:18:13.166Z,2.65
2024-05-09T16:20:43.396Z,2.92
2024-05-09T16:23:13.014Z,2.90
2024-05-09T16:25:46.446Z,3.17
2024-05-09T16:28:14.568Z,3.58
2024-05-09T16:30:43.318Z,2.92
2024-05-09T16:33:12.459Z,2.70
2024-05-09T16:35:40.649Z,3.50
2024-05-09T16:38:08.775Z,2.65
2024-05-09T16:40:40.277Z,2.72
2024-05-09T16:43:11.567Z,2.97
2024-05-09T16:45:41.234Z,3.85
2024-05-09T16:48:09.883Z,2.88
2024-05-09T16:50:39.304Z,3.00
2024-05-09T16:53:07.653Z,2.80
2024-05-09T16:55:36.588Z,2.80
2024-05-09T16:58:05.487Z,3.38
2024-05-09T17:00:40.559Z,2.70
2024-05-09T17:03:15.292Z,3.33
2024-05-09T17:05:47.366Z,3.33
2024-05-09T17:08:18.329Z,2.97
